Terminal Aerodrome Forecast
Issued by NWS

Home | Current Version | Previous Version | Text Only | Print | Product List | Glossary On
Versions: 1 2 3 4 5 6 7 8 9 10 11 12 13 14 15 16
000
FTUS43 KSGF 152320
TAFBBG
TAF
KBBG 152320Z 1600/1624 24005KT P6SM SKC
     FM160900 20008KT P6SM SKC WS015/24040KT
     FM161600 19011G20KT P6SM SKC=

USA.gov is the U.S. government's official web portal to all federal, state and local government web resources and services.